sensor_id;sensor_type;location;lat;lon;timestamp;temperature;humidity
47600;DHT22;33323;52.124;6.018;2022-11-27T00:01:44;6.00;99.90
47600;DHT22;33323;52.124;6.018;2022-11-27T00:04:12;5.90;99.90
47600;DHT22;33323;52.124;6.018;2022-11-27T00:06:40;5.80;99.90
47600;DHT22;33323;52.124;6.018;2022-11-27T00:09:11;5.80;99.90
47600;DHT22;33323;52.124;6.018;2022-11-27T00:11:41;5.80;99.90
47600;DHT22;33323;52.124;6.018;2022-11-27T00:14:15;5.70;99.90
47600;DHT22;33323;52.124;6.018;2022-11-27T00:16:48;5.80;99.90
47600;DHT22;33323;52.124;6.018;2022-11-27T00:19:16;5.70;99.90
47600;DHT22;33323;52.124;6.018;2022-11-27T00:21:42;5.70;99.90
47600;DHT22;33323;52.124;6.018;2022-11-27T00:24:10;5.70;99.90
47600;DHT22;33323;52.124;6.018;2022-11-27T00:26:38;5.70;99.90
47600;DHT22;33323;52.124;6.018;2022-11-27T00:29:05;5.70;99.90
47600;DHT22;33323;52.124;6.018;2022-11-27T00:31:48;5.60;99.90
47600;DHT22;33323;52.124;6.018;2022-11-27T00:34:17;5.60;99.90
47600;DHT22;33323;52.124;6.018;2022-11-27T00:36:44;5.50;99.90
47600;DHT22;33323;52.124;6.018;2022-11-27T00:39:14;5.50;99.90
47600;DHT22;33323;52.124;6.018;2022-11-27T00:41:41;5.50;99.90
47600;DHT22;33323;52.124;6.018;2022-11-27T00:44:11;5.50;99.90
47600;DHT22;33323;52.124;6.018;2022-11-27T00:46:41;5.50;99.90
47600;DHT22;33323;52.124;6.018;2022-11-27T00:49:12;5.50;99.90
47600;DHT22;33323;52.124;6.018;2022-11-27T00:51:40;5.50;99.90
47600;DHT22;33323;52.124;6.018;2022-11-27T00:54:08;5.40;99.90
47600;DHT22;33323;52.124;6.018;2022-11-27T00:56:37;5.40;99.90
47600;DHT22;33323;52.124;6.018;2022-11-27T00:59:09;5.40;99.90
47600;DHT22;33323;52.124;6.018;2022-11-27T01:01:39;5.40;99.90
47600;DHT22;33323;52.124;6.018;2022-11-27T01:04:12;5.30;99.90
47600;DHT22;33323;52.124;6.018;2022-11-27T01:06:43;5.20;99.90
47600;DHT22;33323;52.124;6.018;2022-11-27T01:09:11;5.20;99.90
47600;DHT22;33323;52.124;6.018;2022-11-27T01:11:39;5.20;99.90
47600;DHT22;33323;52.124;6.018;2022-11-27T01:14:11;5.20;99.90
47600;DHT22;33323;52.124;6.018;2022-11-27T01:16:41;5.20;99.90
47600;DHT22;33323;52.124;6.018;2022-11-27T01:19:11;5.20;99.90
47600;DHT22;33323;52.124;6.018;2022-11-27T01:21:40;5.10;99.90
47600;DHT22;33323;52.124;6.018;2022-11-27T01:24:11;5.10;99.90
47600;DHT22;33323;52.124;6.018;2022-11-27T01:26:40;5.10;99.90
47600;DHT22;33323;52.124;6.018;2022-11-27T01:29:08;5.10;99.90
47600;DHT22;33323;52.124;6.018;2022-11-27T01:31:38;5.10;99.90
47600;DHT22;33323;52.124;6.018;2022-11-27T01:34:10;5.10;99.90
47600;DHT22;33323;52.124;6.018;2022-11-27T01:36:40;5.10;99.90
47600;DHT22;33323;52.124;6.018;2022-11-27T01:39:14;5.20;99.90
47600;DHT22;33323;52.124;6.018;2022-11-27T01:41:45;5.10;99.90
47600;DHT22;33323;52.124;6.018;2022-11-27T01:46:55;5.10;99.90
47600;DHT22;33323;52.124;6.018;2022-11-27T01:49:34;5.20;99.90
47600;DHT22;33323;52.124;6.018;2022-11-27T01:52:41;5.20;99.90
47600;DHT22;33323;52.124;6.018;2022-11-27T01:55:31;5.10;99.90
47600;DHT22;33323;52.124;6.018;2022-11-27T01:58:13;5.20;99.90
47600;DHT22;33323;52.124;6.018;2022-11-27T02:00:42;5.20;99.90
47600;DHT22;33323;52.124;6.018;2022-11-27T02:03:09;5.20;99.90
47600;DHT22;33323;52.124;6.018;2022-11-27T02:05:39;5.20;99.90
47600;DHT22;33323;52.124;6.018;2022-11-27T02:08:09;5.30;99.90
47600;DHT22;33323;52.124;6.018;2022-11-27T02:13:50;5.20;99.90
47600;DHT22;33323;52.124;6.018;2022-11-27T02:17:18;5.20;99.90
47600;DHT22;33323;52.124;6.018;2022-11-27T02:22:34;5.10;99.90
47600;DHT22;33323;52.124;6.018;2022-11-27T02:28:23;5.10;99.90
47600;DHT22;33323;52.124;6.018;2022-11-27T02:31:11;5.20;99.90
47600;DHT22;33323;52.124;6.018;2022-11-27T02:33:44;5.20;99.90
47600;DHT22;33323;52.124;6.018;2022-11-27T02:36:21;5.10;99.90
47600;DHT22;33323;52.124;6.018;2022-11-27T02:39:10;5.10;99.90
47600;DHT22;33323;52.124;6.018;2022-11-27T02:41:53;5.10;99.90
47600;DHT22;33323;52.124;6.018;2022-11-27T02:44:27;5.10;99.90
47600;DHT22;33323;52.124;6.018;2022-11-27T02:46:57;5.10;99.90
47600;DHT22;33323;52.124;6.018;2022-11-27T02:49:25;5.10;99.90
47600;DHT22;33323;52.124;6.018;2022-11-27T02:51:56;5.10;99.90
47600;DHT22;33323;52.124;6.018;2022-11-27T02:54:27;5.10;99.90
47600;DHT22;33323;52.124;6.018;2022-11-27T02:56:58;5.20;99.90
47600;DHT22;33323;52.124;6.018;2022-11-27T02:59:29;5.10;99.90
47600;DHT22;33323;52.124;6.018;2022-11-27T03:02:03;5.20;99.90
47600;DHT22;33323;52.124;6.018;2022-11-27T03:04:42;5.20;99.90
47600;DHT22;33323;52.124;6.018;2022-11-27T03:07:17;5.20;99.90
47600;DHT22;33323;52.124;6.018;2022-11-27T03:09:51;5.30;99.90
47600;DHT22;33323;52.124;6.018;2022-11-27T03:12:19;5.30;99.90
47600;DHT22;33323;52.124;6.018;2022-11-27T03:14:47;5.30;99.90
47600;DHT22;33323;52.124;6.018;2022-11-27T03:17:25;5.30;99.90
47600;DHT22;33323;52.124;6.018;2022-11-27T03:20:27;5.30;99.90
47600;DHT22;33323;52.124;6.018;2022-11-27T03:22:57;5.30;99.90
47600;DHT22;33323;52.124;6.018;2022-11-27T03:25:24;5.30;99.90
47600;DHT22;33323;52.124;6.018;2022-11-27T03:28:04;5.30;99.90
47600;DHT22;33323;52.124;6.018;2022-11-27T03:30:34;5.30;99.90
47600;DHT22;33323;52.124;6.018;2022-11-27T03:33:01;5.30;99.90
47600;DHT22;33323;52.124;6.018;2022-11-27T03:35:28;5.30;99.90
47600;DHT22;33323;52.124;6.018;2022-11-27T03:37:56;5.30;99.90
47600;DHT22;33323;52.124;6.018;2022-11-27T03:40:29;5.30;99.90
47600;DHT22;33323;52.124;6.018;2022-11-27T03:43:08;5.30;99.90
47600;DHT22;33323;52.124;6.018;2022-11-27T03:45:58;5.30;99.90
47600;DHT22;33323;52.124;6.018;2022-11-27T03:48:42;5.40;99.90
47600;DHT22;33323;52.124;6.018;2022-11-27T03:51:35;5.40;99.90
47600;DHT22;33323;52.124;6.018;2022-11-27T03:54:16;5.40;99.90
47600;DHT22;33323;52.124;6.018;2022-11-27T03:57:00;5.40;99.90
47600;DHT22;33323;52.124;6.018;2022-11-27T03:59:44;5.50;99.90
47600;DHT22;33323;52.124;6.018;2022-11-27T04:02:14;5.50;99.90
47600;DHT22;33323;52.124;6.018;2022-11-27T04:04:43;5.50;99.90
47600;DHT22;33323;52.124;6.018;2022-11-27T04:07:15;5.60;99.90
47600;DHT22;33323;52.124;6.018;2022-11-27T04:09:46;5.60;99.90
47600;DHT22;33323;52.124;6.018;2022-11-27T04:12:14;5.50;99.90
47600;DHT22;33323;52.124;6.018;2022-11-27T04:14:41;5.60;99.90
47600;DHT22;33323;52.124;6.018;2022-11-27T04:17:08;5.60;99.90
47600;DHT22;33323;52.124;6.018;2022-11-27T04:19:35;5.60;99.90
47600;DHT22;33323;52.124;6.018;2022-11-27T04:22:02;5.60;99.90
47600;DHT22;33323;52.124;6.018;2022-11-27T04:24:30;5.60;99.90
47600;DHT22;33323;52.124;6.018;2022-11-27T04:26:57;5.60;99.90
47600;DHT22;33323;52.124;6.018;2022-11-27T04:29:24;5.70;99.90
47600;DHT22;33323;52.124;6.018;2022-11-27T04:31:51;5.60;99.90
47600;DHT22;33323;52.124;6.018;2022-11-27T04:34:18;5.60;99.90
47600;DHT22;33323;52.124;6.018;2022-11-27T04:36:45;5.60;99.90
47600;DHT22;33323;52.124;6.018;2022-11-27T04:39:13;5.60;99.90
47600;DHT22;33323;52.124;6.018;2022-11-27T04:41:39;5.60;99.90
47600;DHT22;33323;52.124;6.018;2022-11-27T04:44:06;5.60;99.90
47600;DHT22;33323;52.124;6.018;2022-11-27T04:46:33;5.60;99.90
47600;DHT22;33323;52.124;6.018;2022-11-27T04:49:00;5.60;99.90
47600;DHT22;33323;52.124;6.018;2022-11-27T04:51:27;5.60;99.90
47600;DHT22;33323;52.124;6.018;2022-11-27T04:53:54;5.60;99.90
47600;DHT22;33323;52.124;6.018;2022-11-27T04:59:24;5.60;99.90
47600;DHT22;33323;52.124;6.018;2022-11-27T05:01:50;5.60;99.90
47600;DHT22;33323;52.124;6.018;2022-11-27T05:04:17;5.60;99.90
47600;DHT22;33323;52.124;6.018;2022-11-27T05:06:44;5.60;99.90
47600;DHT22;33323;52.124;6.018;2022-11-27T05:09:11;5.70;99.90
47600;DHT22;33323;52.124;6.018;2022-11-27T05:11:39;5.70;99.90
47600;DHT22;33323;52.124;6.018;2022-11-27T05:14:06;5.60;99.90
47600;DHT22;33323;52.124;6.018;2022-11-27T05:16:44;5.60;99.90
47600;DHT22;33323;52.124;6.018;2022-11-27T05:19:21;5.60;99.90
47600;DHT22;33323;52.124;6.018;2022-11-27T05:21:49;5.60;99.90
47600;DHT22;33323;52.124;6.018;2022-11-27T05:24:18;5.60;99.90
47600;DHT22;33323;52.124;6.018;2022-11-27T05:26:47;5.70;99.90
47600;DHT22;33323;52.124;6.018;2022-11-27T05:29:15;5.60;99.90
47600;DHT22;33323;52.124;6.018;2022-11-27T05:31:42;5.60;99.90
47600;DHT22;33323;52.124;6.018;2022-11-27T05:34:10;5.60;99.90
47600;DHT22;33323;52.124;6.018;2022-11-27T05:36:37;5.60;99.90
47600;DHT22;33323;52.124;6.018;2022-11-27T05:39:06;5.60;99.90
47600;DHT22;33323;52.124;6.018;2022-11-27T05:41:35;5.60;99.90
47600;DHT22;33323;52.124;6.018;2022-11-27T05:44:03;5.60;99.90
47600;DHT22;33323;52.124;6.018;2022-11-27T05:46:30;5.60;99.90
47600;DHT22;33323;52.124;6.018;2022-11-27T05:48:58;5.60;99.90
47600;DHT22;33323;52.124;6.018;2022-11-27T05:51:25;5.70;99.90
47600;DHT22;33323;52.124;6.018;2022-11-27T05:53:52;5.60;99.90
47600;DHT22;33323;52.124;6.018;2022-11-27T05:56:19;5.70;99.90
47600;DHT22;33323;52.124;6.018;2022-11-27T05:58:47;5.60;99.90
47600;DHT22;33323;52.124;6.018;2022-11-27T06:01:16;5.60;99.90
47600;DHT22;33323;52.124;6.018;2022-11-27T06:03:44;5.60;99.90
47600;DHT22;33323;52.124;6.018;2022-11-27T06:06:15;5.60;99.90
47600;DHT22;33323;52.124;6.018;2022-11-27T06:08:54;5.60;99.90
47600;DHT22;33323;52.124;6.018;2022-11-27T06:11:21;5.70;99.90
47600;DHT22;33323;52.124;6.018;2022-11-27T06:13:49;5.60;99.90
47600;DHT22;33323;52.124;6.018;2022-11-27T06:16:19;5.60;99.90
47600;DHT22;33323;52.124;6.018;2022-11-27T06:18:49;5.70;99.90
47600;DHT22;33323;52.124;6.018;2022-11-27T06:21:18;5.70;99.90
47600;DHT22;33323;52.124;6.018;2022-11-27T06:23:46;5.80;99.90
47600;DHT22;33323;52.124;6.018;2022-11-27T06:26:17;5.70;99.90
47600;DHT22;33323;52.124;6.018;2022-11-27T06:28:46;5.80;99.90
47600;DHT22;33323;52.124;6.018;2022-11-27T06:31:17;5.80;99.90
47600;DHT22;33323;52.124;6.018;2022-11-27T06:33:50;5.80;99.90
47600;DHT22;33323;52.124;6.018;2022-11-27T06:36:18;5.80;99.90
47600;DHT22;33323;52.124;6.018;2022-11-27T06:38:45;5.80;99.90
47600;DHT22;33323;52.124;6.018;2022-11-27T06:41:17;5.80;99.90
47600;DHT22;33323;52.124;6.018;2022-11-27T06:43:46;5.80;99.90
47600;DHT22;33323;52.124;6.018;2022-11-27T06:46:16;5.80;99.90
47600;DHT22;33323;52.124;6.018;2022-11-27T06:48:47;5.80;99.90
47600;DHT22;33323;52.124;6.018;2022-11-27T06:51:20;5.80;99.90
47600;DHT22;33323;52.124;6.018;2022-11-27T06:53:50;5.80;99.90
47600;DHT22;33323;52.124;6.018;2022-11-27T06:56:23;5.80;99.90
47600;DHT22;33323;52.124;6.018;2022-11-27T06:58:56;5.80;99.90
47600;DHT22;33323;52.124;6.018;2022-11-27T07:01:26;5.80;99.90
47600;DHT22;33323;52.124;6.018;2022-11-27T07:03:55;5.80;99.90
47600;DHT22;33323;52.124;6.018;2022-11-27T07:06:24;5.80;99.90
47600;DHT22;33323;52.124;6.018;2022-11-27T07:08:52;5.80;99.90
47600;DHT22;33323;52.124;6.018;2022-11-27T07:11:23;5.80;99.90
47600;DHT22;33323;52.124;6.018;2022-11-27T07:13:54;5.80;99.90
47600;DHT22;33323;52.124;6.018;2022-11-27T07:16:23;5.80;99.90
47600;DHT22;33323;52.124;6.018;2022-11-27T07:18:54;5.70;99.90
47600;DHT22;33323;52.124;6.018;2022-11-27T07:21:25;5.70;99.90
47600;DHT22;33323;52.124;6.018;2022-11-27T07:23:53;5.80;99.90
47600;DHT22;33323;52.124;6.018;2022-11-27T07:26:24;5.70;99.90
47600;DHT22;33323;52.124;6.018;2022-11-27T07:28:53;5.80;99.90
47600;DHT22;33323;52.124;6.018;2022-11-27T07:31:26;5.80;99.90
47600;DHT22;33323;52.124;6.018;2022-11-27T07:33:55;5.80;99.90
47600;DHT22;33323;52.124;6.018;2022-11-27T07:36:29;5.80;99.90
47600;DHT22;33323;52.124;6.018;2022-11-27T07:38:57;5.80;99.90
47600;DHT22;33323;52.124;6.018;2022-11-27T07:41:24;5.80;99.90
47600;DHT22;33323;52.124;6.018;2022-11-27T07:43:59;5.80;99.90
47600;DHT22;33323;52.124;6.018;2022-11-27T07:46:26;5.80;99.90
47600;DHT22;33323;52.124;6.018;2022-11-27T07:48:53;5.80;99.90
47600;DHT22;33323;52.124;6.018;2022-11-27T07:51:20;5.80;99.90
47600;DHT22;33323;52.124;6.018;2022-11-27T07:53:48;5.80;99.90
47600;DHT22;33323;52.124;6.018;2022-11-27T07:56:18;5.80;99.90
47600;DHT22;33323;52.124;6.018;2022-11-27T07:58:46;5.80;99.90
47600;DHT22;33323;52.124;6.018;2022-11-27T08:01:16;5.80;99.90
47600;DHT22;33323;52.124;6.018;2022-11-27T08:03:44;5.80;99.90
47600;DHT22;33323;52.124;6.018;2022-11-27T08:06:17;5.80;99.90
47600;DHT22;33323;52.124;6.018;2022-11-27T08:08:46;5.70;99.90
47600;DHT22;33323;52.124;6.018;2022-11-27T08:11:27;5.80;99.90
47600;DHT22;33323;52.124;6.018;2022-11-27T08:13:59;5.80;99.90
47600;DHT22;33323;52.124;6.018;2022-11-27T08:16:28;5.80;99.90
47600;DHT22;33323;52.124;6.018;2022-11-27T08:18:55;5.80;99.90
47600;DHT22;33323;52.124;6.018;2022-11-27T08:21:23;5.80;99.90
47600;DHT22;33323;52.124;6.018;2022-11-27T08:23:51;5.80;99.90
47600;DHT22;33323;52.124;6.018;2022-11-27T08:42:08;5.80;99.90
47600;DHT22;33323;52.124;6.018;2022-11-27T08:45:05;5.80;99.90
47600;DHT22;33323;52.124;6.018;2022-11-27T08:47:35;5.80;99.90
47600;DHT22;33323;52.124;6.018;2022-11-27T08:50:02;5.70;99.90
47600;DHT22;33323;52.124;6.018;2022-11-27T08:52:31;5.70;99.90
47600;DHT22;33323;52.124;6.018;2022-11-27T08:54:58;5.70;99.90
47600;DHT22;33323;52.124;6.018;2022-11-27T08:57:35;5.70;99.90
47600;DHT22;33323;52.124;6.018;2022-11-27T09:00:03;5.70;99.90
47600;DHT22;33323;52.124;6.018;2022-11-27T13:45:35;6.90;99.90
47600;DHT22;33323;52.124;6.018;2022-11-27T13:48:23;6.90;99.90
47600;DHT22;33323;52.124;6.018;2022-11-27T13:51:27;6.90;99.90
47600;DHT22;33323;52.124;6.018;2022-11-27T13:54:08;7.00;99.90
47600;DHT22;33323;52.124;6.018;2022-11-27T13:56:40;7.00;99.90
47600;DHT22;33323;52.124;6.018;2022-11-27T13:59:24;7.00;99.90
47600;DHT22;33323;52.124;6.018;2022-11-27T14:07:51;7.00;99.90
47600;DHT22;33323;52.124;6.018;2022-11-27T14:13:44;7.00;99.90
47600;DHT22;33323;52.124;6.018;2022-11-27T14:16:21;7.00;99.90
47600;DHT22;33323;52.124;6.018;2022-11-27T14:18:55;6.90;99.90
47600;DHT22;33323;52.124;6.018;2022-11-27T14:24:36;6.90;99.90
47600;DHT22;33323;52.124;6.018;2022-11-27T14:27:18;6.90;99.90
47600;DHT22;33323;52.124;6.018;2022-11-27T14:29:47;7.00;99.90
47600;DHT22;33323;52.124;6.018;2022-11-27T14:35:19;6.90;99.90
47600;DHT22;33323;52.124;6.018;2022-11-27T14:37:47;6.90;99.90
47600;DHT22;33323;52.124;6.018;2022-11-27T14:40:26;6.90;99.90
47600;DHT22;33323;52.124;6.018;2022-11-27T14:43:05;6.90;99.90
47600;DHT22;33323;52.124;6.018;2022-11-27T14:48:46;6.90;99.90
47600;DHT22;33323;52.124;6.018;2022-11-27T14:51:24;6.80;99.90
47600;DHT22;33323;52.124;6.018;2022-11-27T14:56:56;6.80;99.90
47600;DHT22;33323;52.124;6.018;2022-11-27T15:02:17;6.80;99.90
47600;DHT22;33323;52.124;6.018;2022-11-27T15:05:02;6.80;99.90
47600;DHT22;33323;52.124;6.018;2022-11-27T15:07:32;6.80;99.90
47600;DHT22;33323;52.124;6.018;2022-11-27T15:10:39;6.90;99.90
47600;DHT22;33323;52.124;6.018;2022-11-27T15:13:16;6.90;99.90
47600;DHT22;33323;52.124;6.018;2022-11-27T15:15:56;6.90;99.90
47600;DHT22;33323;52.124;6.018;2022-11-27T15:18:34;6.90;99.90
47600;DHT22;33323;52.124;6.018;2022-11-27T15:21:10;6.90;99.90
47600;DHT22;33323;52.124;6.018;2022-11-27T15:23:44;6.90;99.90
47600;DHT22;33323;52.124;6.018;2022-11-27T15:34:56;7.20;99.90
47600;DHT22;33323;52.124;6.018;2022-11-27T15:43:46;7.20;99.90
47600;DHT22;33323;52.124;6.018;2022-11-27T15:49:19;7.20;99.90
47600;DHT22;33323;52.124;6.018;2022-11-27T15:54:59;7.00;99.90
47600;DHT22;33323;52.124;6.018;2022-11-27T16:09:49;6.90;99.90
47600;DHT22;33323;52.124;6.018;2022-11-27T16:34:27;7.00;99.90
47600;DHT22;33323;52.124;6.018;2022-11-27T16:37:50;7.00;99.90
47600;DHT22;33323;52.124;6.018;2022-11-27T16:46:30;7.10;99.90
47600;DHT22;33323;52.124;6.018;2022-11-27T16:49:01;7.00;99.90
47600;DHT22;33323;52.124;6.018;2022-11-27T16:58:06;7.10;99.90
47600;DHT22;33323;52.124;6.018;2022-11-27T17:03:45;7.10;99.90
47600;DHT22;33323;52.124;6.018;2022-11-27T17:09:07;7.20;99.90
47600;DHT22;33323;52.124;6.018;2022-11-27T17:30:39;7.10;99.90
47600;DHT22;33323;52.124;6.018;2022-11-27T17:33:38;7.20;99.90
47600;DHT22;33323;52.124;6.018;2022-11-27T17:36:40;7.10;99.90
47600;DHT22;33323;52.124;6.018;2022-11-27T17:39:13;7.20;99.90
47600;DHT22;33323;52.124;6.018;2022-11-27T17:56:38;7.30;99.90
47600;DHT22;33323;52.124;6.018;2022-11-27T18:09:01;7.10;99.90
47600;DHT22;33323;52.124;6.018;2022-11-27T18:11:30;7.10;99.90
47600;DHT22;33323;52.124;6.018;2022-11-27T18:13:59;7.10;99.90
47600;DHT22;33323;52.124;6.018;2022-11-27T18:16:35;7.10;99.90
47600;DHT22;33323;52.124;6.018;2022-11-27T18:19:05;7.10;99.90
47600;DHT22;33323;52.124;6.018;2022-11-27T18:21:34;7.10;99.90
47600;DHT22;33323;52.124;6.018;2022-11-27T18:27:11;7.10;99.90
47600;DHT22;33323;52.124;6.018;2022-11-27T18:32:47;7.00;99.90
47600;DHT22;33323;52.124;6.018;2022-11-27T18:35:15;7.10;99.90
47600;DHT22;33323;52.124;6.018;2022-11-27T18:37:42;7.00;99.90
47600;DHT22;33323;52.124;6.018;2022-11-27T18:40:09;7.10;99.90
47600;DHT22;33323;52.124;6.018;2022-11-27T18:42:37;7.00;99.90
47600;DHT22;33323;52.124;6.018;2022-11-27T18:45:05;7.00;99.90
47600;DHT22;33323;52.124;6.018;2022-11-27T18:47:52;7.00;99.90
47600;DHT22;33323;52.124;6.018;2022-11-27T18:50:19;7.00;99.90
47600;DHT22;33323;52.124;6.018;2022-11-27T18:52:52;7.00;99.90
47600;DHT22;33323;52.124;6.018;2022-11-27T18:55:20;6.90;99.90
47600;DHT22;33323;52.124;6.018;2022-11-27T18:57:47;6.90;99.90
47600;DHT22;33323;52.124;6.018;2022-11-27T19:00:15;6.90;99.90
47600;DHT22;33323;52.124;6.018;2022-11-27T19:02:43;6.90;99.90
47600;DHT22;33323;52.124;6.018;2022-11-27T19:05:10;6.80;99.90
47600;DHT22;33323;52.124;6.018;2022-11-27T19:07:36;6.80;99.90
47600;DHT22;33323;52.124;6.018;2022-11-27T19:10:04;6.80;99.90
47600;DHT22;33323;52.124;6.018;2022-11-27T19:12:31;6.80;99.90
47600;DHT22;33323;52.124;6.018;2022-11-27T19:14:59;6.80;99.90
47600;DHT22;33323;52.124;6.018;2022-11-27T19:17:27;6.70;99.90
47600;DHT22;33323;52.124;6.018;2022-11-27T19:19:58;6.70;99.90
47600;DHT22;33323;52.124;6.018;2022-11-27T19:22:25;6.70;99.90
47600;DHT22;33323;52.124;6.018;2022-11-27T19:24:55;6.70;99.90
47600;DHT22;33323;52.124;6.018;2022-11-27T19:27:22;6.70;99.90
47600;DHT22;33323;52.124;6.018;2022-11-27T19:29:49;6.70;99.90
47600;DHT22;33323;52.124;6.018;2022-11-27T19:32:16;6.60;99.90
47600;DHT22;33323;52.124;6.018;2022-11-27T19:34:43;6.70;99.90
47600;DHT22;33323;52.124;6.018;2022-11-27T19:37:11;6.60;99.90
47600;DHT22;33323;52.124;6.018;2022-11-27T19:39:37;6.60;99.90
47600;DHT22;33323;52.124;6.018;2022-11-27T19:42:05;6.60;99.90
47600;DHT22;33323;52.124;6.018;2022-11-27T19:44:33;6.60;99.90
47600;DHT22;33323;52.124;6.018;2022-11-27T19:46:59;6.60;99.90
47600;DHT22;33323;52.124;6.018;2022-11-27T19:49:28;6.60;99.90
47600;DHT22;33323;52.124;6.018;2022-11-27T19:51:55;6.60;99.90
47600;DHT22;33323;52.124;6.018;2022-11-27T19:54:23;6.60;99.90
47600;DHT22;33323;52.124;6.018;2022-11-27T19:56:50;6.60;99.90
47600;DHT22;33323;52.124;6.018;2022-11-27T19:59:17;6.50;99.90
47600;DHT22;33323;52.124;6.018;2022-11-27T20:01:51;6.50;99.90
47600;DHT22;33323;52.124;6.018;2022-11-27T20:04:23;6.50;99.90
47600;DHT22;33323;52.124;6.018;2022-11-27T20:06:51;6.50;99.90
47600;DHT22;33323;52.124;6.018;2022-11-27T20:09:18;6.50;99.90
47600;DHT22;33323;52.124;6.018;2022-11-27T20:11:46;6.50;99.90
47600;DHT22;33323;52.124;6.018;2022-11-27T20:14:13;6.50;99.90
47600;DHT22;33323;52.124;6.018;2022-11-27T20:16:40;6.50;99.90
47600;DHT22;33323;52.124;6.018;2022-11-27T20:19:07;6.50;99.90
47600;DHT22;33323;52.124;6.018;2022-11-27T20:21:34;6.50;99.90
47600;DHT22;33323;52.124;6.018;2022-11-27T20:26:50;6.50;99.90
47600;DHT22;33323;52.124;6.018;2022-11-27T23:40:34;6.60;99.90
